createdAt,value
2019-05-28T00:01:16.947Z,12.60
2019-05-28T00:04:05.848Z,12.60
2019-05-28T00:06:54.687Z,12.60
2019-05-28T00:09:43.488Z,12.50
2019-05-28T00:12:32.448Z,12.60
2019-05-28T00:15:21.313Z,12.60
2019-05-28T00:18:10.503Z,12.50
2019-05-28T00:20:59.274Z,12.50
2019-05-28T00:23:48.101Z,12.50
2019-05-28T00:26:36.934Z,12.50
2019-05-28T00:29:18.490Z,12.50
2019-05-28T00:31:59.757Z,12.60
2019-05-28T00:34:41.298Z,12.60
2019-05-28T00:37:22.957Z,12.60
2019-05-28T00:40:04.735Z,12.60
2019-05-28T00:42:46.586Z,12.50
2019-05-28T00:45:28.175Z,12.50
2019-05-28T00:48:09.854Z,12.50
2019-05-28T00:50:51.437Z,12.50
2019-05-28T00:53:33.043Z,12.50
2019-05-28T00:56:14.579Z,12.50
2019-05-28T00:58:56.011Z,12.40
2019-05-28T01:01:38.158Z,12.40
2019-05-28T01:04:19.493Z,12.40
2019-05-28T01:07:03.718Z,12.40
2019-05-28T01:09:45.517Z,12.30
2019-05-28T01:15:09.412Z,12.30
2019-05-28T01:20:32.943Z,12.40
2019-05-28T01:23:14.482Z,12.40
2019-05-28T01:25:56.545Z,12.30
2019-05-28T01:28:37.808Z,12.30
2019-05-28T01:31:18.590Z,12.30
2019-05-28T01:34:00.524Z,12.30
2019-05-28T01:36:42.038Z,12.30
2019-05-28T01:39:23.196Z,12.30
2019-05-28T01:42:04.628Z,12.40
2019-05-28T01:44:45.963Z,12.30
2019-05-28T01:47:27.561Z,12.30
2019-05-28T01:50:08.925Z,12.30
2019-05-28T01:52:50.465Z,12.30
2019-05-28T01:55:32.323Z,12.30
2019-05-28T02:01:11.561Z,12.20
2019-05-28T02:03:39.442Z,12.20
2019-05-28T02:06:20.788Z,12.20
2019-05-28T02:09:02.312Z,12.20
2019-05-28T02:11:43.670Z,12.20
2019-05-28T02:14:25.397Z,12.20
2019-05-28T02:17:06.723Z,12.20
2019-05-28T02:19:48.174Z,12.20
2019-05-28T02:22:29.705Z,12.20
2019-05-28T02:25:11.374Z,12.20
2019-05-28T02:27:53.053Z,12.20
2019-05-28T02:30:34.762Z,12.20
2019-05-28T02:33:16.371Z,12.20
2019-05-28T02:35:58.285Z,12.20
2019-05-28T02:38:39.683Z,12.20
2019-05-28T02:41:20.912Z,12.30
2019-05-28T02:44:02.531Z,12.30
2019-05-28T02:46:44.175Z,12.20
2019-05-28T02:49:25.397Z,12.20
2019-05-28T02:52:06.681Z,12.20
2019-05-28T02:54:48.464Z,12.20
2019-05-28T02:57:30.696Z,12.20
2019-05-28T03:00:11.881Z,12.20
2019-05-28T03:02:52.798Z,12.20
2019-05-28T03:05:32.986Z,12.20
2019-05-28T03:08:42.078Z,12.20
2019-05-28T03:11:31.266Z,12.20
2019-05-28T03:14:20.090Z,12.20
2019-05-28T03:17:29.146Z,12.10
2019-05-28T03:20:18.064Z,12.10
2019-05-28T03:23:06.959Z,12.10
2019-05-28T03:25:55.824Z,12.20
2019-05-28T03:28:44.741Z,12.20
2019-05-28T03:31:26.243Z,12.20
2019-05-28T03:34:07.853Z,12.20
2019-05-28T03:37:16.962Z,12.20
2019-05-28T03:40:13.865Z,12.20
2019-05-28T03:43:02.774Z,12.30
2019-05-28T03:45:51.639Z,12.30
2019-05-28T03:48:40.406Z,12.30
2019-05-28T03:51:29.232Z,12.20
2019-05-28T03:54:18.374Z,12.30
2019-05-28T03:57:07.556Z,12.30
2019-05-28T03:59:58.020Z,12.20
2019-05-28T04:02:46.859Z,12.20
2019-05-28T04:05:35.675Z,12.20
2019-05-28T04:08:24.454Z,12.20
2019-05-28T04:11:13.258Z,12.20
2019-05-28T04:14:02.503Z,12.20
2019-05-28T04:16:51.346Z,12.20
2019-05-28T04:19:40.250Z,12.20
2019-05-28T04:22:29.154Z,12.20
2019-05-28T04:25:17.938Z,12.20
2019-05-28T04:28:07.139Z,12.30
2019-05-28T04:30:56.023Z,12.30
2019-05-28T04:33:44.887Z,12.20
2019-05-28T04:36:34.110Z,12.30
2019-05-28T04:39:22.872Z,12.30
2019-05-28T04:42:12.163Z,12.30
2019-05-28T04:45:00.950Z,12.30
2019-05-28T04:47:50.175Z,12.30
2019-05-28T04:50:39.419Z,12.30
2019-05-28T04:53:28.782Z,12.40
2019-05-28T04:56:18.226Z,12.30
2019-05-28T04:59:07.014Z,12.30
2019-05-28T05:01:55.834Z,12.40
2019-05-28T05:04:45.051Z,12.40
2019-05-28T05:07:34.313Z,12.40
2019-05-28T05:10:23.118Z,12.40
2019-05-28T05:13:12.916Z,12.40
2019-05-28T05:16:01.707Z,12.40
2019-05-28T05:18:50.528Z,12.50
2019-05-28T05:21:39.409Z,12.50
2019-05-28T05:24:28.231Z,12.50
2019-05-28T05:27:17.469Z,12.40
2019-05-28T05:30:06.452Z,12.40
2019-05-28T05:32:47.771Z,12.50
2019-05-28T05:35:29.576Z,12.50
2019-05-28T05:38:09.478Z,12.50
2019-05-28T05:40:58.683Z,12.50
2019-05-28T05:43:47.545Z,12.50
2019-05-28T05:46:36.316Z,12.50
2019-05-28T05:49:25.136Z,12.50
2019-05-28T05:52:13.978Z,12.50
2019-05-28T05:55:02.799Z,12.50
2019-05-28T05:57:51.965Z,12.60
2019-05-28T06:00:40.756Z,12.70
2019-05-28T06:03:40.130Z,12.70
2019-05-28T06:06:20.058Z,12.80
2019-05-28T06:09:09.231Z,12.80
2019-05-28T06:11:39.088Z,12.90
2019-05-28T06:14:09.057Z,12.90
2019-05-28T06:16:58.328Z,12.90
2019-05-28T06:19:47.155Z,12.90
2019-05-28T06:22:35.948Z,12.90
2019-05-28T06:25:25.574Z,12.90
2019-05-28T06:28:15.733Z,12.90
2019-05-28T06:31:04.669Z,12.80
2019-05-28T06:33:57.148Z,12.80
2019-05-28T06:36:36.031Z,12.80
2019-05-28T06:39:17.898Z,12.80
2019-05-28T06:41:59.652Z,12.80
2019-05-28T06:44:41.094Z,12.90
2019-05-28T06:47:11.529Z,12.90
2019-05-28T06:50:01.148Z,13.00
2019-05-28T06:52:50.000Z,13.00
2019-05-28T06:58:39.434Z,13.00
2019-05-28T07:01:24.026Z,13.00
2019-05-28T07:04:19.182Z,13.10
2019-05-28T07:07:03.540Z,13.10
2019-05-28T07:09:52.720Z,13.00
2019-05-28T07:12:41.499Z,13.00
2019-05-28T07:15:30.722Z,12.90
2019-05-28T07:18:19.522Z,12.90
2019-05-28T07:21:08.355Z,12.90
2019-05-28T07:23:57.852Z,13.00
2019-05-28T07:26:46.664Z,13.10
2019-05-28T07:29:35.449Z,13.10
2019-05-28T07:32:24.281Z,13.10
2019-05-28T07:37:47.556Z,13.00
2019-05-28T07:40:32.096Z,13.10
2019-05-28T07:43:13.549Z,13.00
2019-05-28T07:45:54.698Z,13.00
2019-05-28T07:48:35.914Z,13.10
2019-05-28T07:51:17.397Z,13.10
2019-05-28T07:53:58.584Z,13.00
2019-05-28T07:56:39.976Z,13.10
2019-05-28T07:59:21.706Z,13.10
2019-05-28T08:02:02.974Z,13.10
2019-05-28T08:04:47.584Z,13.10
2019-05-28T08:07:27.188Z,13.20
2019-05-28T08:10:08.962Z,13.30
2019-05-28T08:12:50.832Z,13.30
2019-05-28T08:15:31.965Z,13.30
2019-05-28T08:18:13.174Z,13.20
2019-05-28T08:20:54.943Z,13.10
2019-05-28T08:23:36.556Z,13.00
2019-05-28T08:26:18.190Z,13.00
2019-05-28T08:28:59.954Z,12.90
2019-05-28T08:34:23.346Z,12.80
2019-05-28T08:37:06.506Z,12.70
2019-05-28T08:39:47.473Z,12.60
2019-05-28T08:42:29.168Z,12.60
2019-05-28T08:45:10.694Z,12.60
2019-05-28T08:47:40.649Z,12.60
2019-05-28T08:50:34.236Z,12.60
2019-05-28T08:53:19.904Z,12.60
2019-05-28T08:56:08.666Z,12.70
2019-05-28T08:58:57.926Z,12.70
2019-05-28T09:01:46.731Z,12.70
2019-05-28T09:04:16.599Z,12.70
2019-05-28T09:07:05.371Z,12.80
2019-05-28T09:09:54.242Z,12.80
2019-05-28T09:12:43.056Z,12.80
2019-05-28T09:15:32.379Z,12.80
2019-05-28T09:18:21.222Z,12.70
2019-05-28T09:21:10.446Z,12.70
2019-05-28T09:23:59.309Z,12.70
2019-05-28T09:26:48.625Z,12.60
2019-05-28T09:29:37.449Z,12.70
2019-05-28T09:32:26.226Z,12.70
2019-05-28T09:35:07.395Z,12.70
2019-05-28T09:37:48.561Z,12.70
2019-05-28T09:40:48.343Z,12.80
2019-05-28T09:43:12.710Z,12.80
2019-05-28T09:45:53.836Z,12.80
2019-05-28T09:48:35.564Z,12.80
2019-05-28T09:51:17.090Z,12.80
2019-05-28T09:53:58.563Z,12.80
2019-05-28T09:59:42.263Z,12.80
2019-05-28T10:02:23.382Z,12.90
2019-05-28T10:05:04.499Z,12.90
2019-05-28T10:07:44.491Z,12.80
2019-05-28T10:10:33.286Z,12.80
2019-05-28T10:13:37.155Z,12.70
2019-05-28T10:16:13.037Z,12.70
2019-05-28T10:19:01.812Z,12.60
2019-05-28T10:21:50.619Z,12.60
2019-05-28T10:24:40.134Z,12.60
2019-05-28T10:27:29.809Z,12.50
2019-05-28T10:30:38.843Z,12.40
2019-05-28T10:33:27.955Z,12.40
2019-05-28T10:36:09.333Z,12.30
2019-05-28T10:38:50.444Z,12.30
2019-05-28T10:41:32.086Z,12.30
2019-05-28T10:44:13.763Z,12.30
2019-05-28T10:46:55.398Z,12.40
2019-05-28T10:49:37.329Z,12.40
2019-05-28T10:52:18.749Z,12.50
2019-05-28T10:55:02.731Z,12.50
2019-05-28T10:57:43.913Z,12.40
2019-05-28T11:00:25.107Z,12.50
2019-05-28T11:03:06.524Z,12.50
2019-05-28T11:05:48.281Z,12.50
2019-05-28T11:08:29.958Z,12.50
2019-05-28T11:11:11.367Z,12.50
2019-05-28T11:13:53.774Z,12.40
2019-05-28T11:16:35.208Z,12.40
2019-05-28T11:19:16.399Z,12.30
2019-05-28T11:21:58.096Z,12.20
2019-05-28T11:24:39.375Z,12.10
2019-05-28T11:27:23.836Z,12.20
2019-05-28T11:30:04.283Z,12.30
2019-05-28T11:32:46.460Z,12.30
2019-05-28T11:35:28.231Z,12.30
2019-05-28T11:40:51.201Z,12.10
2019-05-28T11:43:32.501Z,12.10
2019-05-28T11:46:14.270Z,12.00
2019-05-28T11:48:55.699Z,12.00
2019-05-28T11:51:36.887Z,12.10
2019-05-28T11:54:18.536Z,12.10
2019-05-28T11:56:59.854Z,12.20
2019-05-28T11:59:41.296Z,12.10
2019-05-28T12:02:22.513Z,12.10
2019-05-28T12:05:03.955Z,12.20
2019-05-28T12:07:45.584Z,12.30
2019-05-28T12:10:27.350Z,12.40
2019-05-28T12:15:50.961Z,12.30
2019-05-28T12:18:32.232Z,12.30
2019-05-28T12:21:13.608Z,12.40
2019-05-28T12:23:55.036Z,12.50
2019-05-28T12:26:36.420Z,12.60
2019-05-28T12:29:18.069Z,12.60
2019-05-28T12:32:00.885Z,12.70
2019-05-28T12:34:42.928Z,12.80
2019-05-28T12:37:24.799Z,12.80
2019-05-28T12:40:06.046Z,12.90
2019-05-28T12:42:47.470Z,13.00
2019-05-28T12:45:35.368Z,13.20
2019-05-28T12:48:13.282Z,13.40
2019-05-28T12:50:54.981Z,13.40
2019-05-28T12:53:49.313Z,13.40
2019-05-28T12:56:19.075Z,13.40
2019-05-28T12:59:01.091Z,13.40
2019-05-28T13:01:42.176Z,13.50
2019-05-28T13:04:23.914Z,13.50
2019-05-28T13:07:05.659Z,13.60
2019-05-28T13:09:49.237Z,13.60
2019-05-28T13:12:30.456Z,13.60
2019-05-28T13:15:11.940Z,13.50
2019-05-28T13:17:53.464Z,13.50
2019-05-28T13:20:34.804Z,13.40
2019-05-28T13:23:16.449Z,13.30
2019-05-28T13:28:40.142Z,13.00
2019-05-28T13:31:21.531Z,12.90
2019-05-28T13:34:03.242Z,12.70
2019-05-28T13:36:44.438Z,12.40
2019-05-28T13:39:25.819Z,12.10
2019-05-28T13:42:07.523Z,11.70
2019-05-28T13:44:49.108Z,11.60
2019-05-28T13:47:33.963Z,11.50
2019-05-28T13:50:12.760Z,11.50
2019-05-28T13:52:54.366Z,11.50
2019-05-28T13:55:35.566Z,11.50
2019-05-28T13:58:17.263Z,11.40
2019-05-28T14:00:58.885Z,11.40
2019-05-28T14:03:39.954Z,11.40
2019-05-28T14:06:21.354Z,11.40
2019-05-28T14:09:02.962Z,11.40
2019-05-28T14:11:44.650Z,11.50
2019-05-28T14:14:26.205Z,11.50
2019-05-28T14:17:07.500Z,11.60
2019-05-28T14:19:38.799Z,11.70
2019-05-28T14:22:33.798Z,11.70
2019-05-28T14:25:18.612Z,11.90
2019-05-28T14:28:07.720Z,12.00
2019-05-28T14:30:59.856Z,12.10
2019-05-28T14:33:28.880Z,12.20
2019-05-28T14:36:10.838Z,12.20
2019-05-28T14:39:02.431Z,12.20
2019-05-28T14:41:35.458Z,12.20
2019-05-28T14:44:16.818Z,12.20
2019-05-28T14:46:58.533Z,12.30
2019-05-28T14:49:39.622Z,12.30
2019-05-28T14:52:21.046Z,12.30
2019-05-28T14:55:02.620Z,12.30
2019-05-28T14:57:42.525Z,12.30
2019-05-28T15:00:31.774Z,12.40
2019-05-28T15:03:20.752Z,12.50
2019-05-28T15:06:10.065Z,12.50
2019-05-28T15:08:59.173Z,12.50
2019-05-28T15:11:47.947Z,12.50
2019-05-28T15:14:36.769Z,12.50
2019-05-28T15:17:26.632Z,12.60
2019-05-28T15:20:16.444Z,12.60
2019-05-28T15:23:05.233Z,12.60
2019-05-28T15:25:54.223Z,12.60
2019-05-28T15:28:43.492Z,12.60
2019-05-28T15:31:32.303Z,12.60
2019-05-28T15:34:21.093Z,12.60
2019-05-28T15:37:02.850Z,12.50
2019-05-28T15:39:44.475Z,12.50
2019-05-28T15:42:25.878Z,12.50
2019-05-28T15:45:07.087Z,12.50
2019-05-28T15:47:48.670Z,12.40
2019-05-28T15:50:29.927Z,12.40
2019-05-28T15:53:11.318Z,12.40
2019-05-28T15:58:51.303Z,12.30
2019-05-28T16:01:32.957Z,12.30
2019-05-28T16:04:14.786Z,12.20
2019-05-28T16:06:56.667Z,12.20
2019-05-28T16:09:53.112Z,12.10
2019-05-28T16:12:21.635Z,12.10
2019-05-28T16:15:04.666Z,12.10
2019-05-28T16:17:45.882Z,12.10
2019-05-28T16:20:27.399Z,12.10
2019-05-28T16:23:12.054Z,12.20
2019-05-28T16:25:53.169Z,12.20
2019-05-28T16:28:34.531Z,12.20
2019-05-28T16:31:15.792Z,12.20
2019-05-28T16:33:57.478Z,12.30
2019-05-28T16:36:39.072Z,12.30
2019-05-28T16:39:20.637Z,12.30
2019-05-28T16:42:02.381Z,12.30
2019-05-28T16:44:44.282Z,12.40
2019-05-28T16:47:25.444Z,12.40
2019-05-28T16:50:07.149Z,12.40
2019-05-28T16:52:48.573Z,12.40
2019-05-28T16:55:29.985Z,12.40
2019-05-28T16:58:11.479Z,12.40
2019-05-28T17:00:41.342Z,12.40
2019-05-28T17:03:30.212Z,12.40
2019-05-28T17:06:19.050Z,12.40
2019-05-28T17:09:08.264Z,12.50
2019-05-28T17:11:57.559Z,12.50
2019-05-28T17:14:46.780Z,12.50
2019-05-28T17:17:35.563Z,12.50
2019-05-28T17:20:24.942Z,12.60
2019-05-28T17:23:14.597Z,12.70
2019-05-28T17:26:03.410Z,12.70
2019-05-28T17:28:52.608Z,12.80
2019-05-28T17:31:41.528Z,12.70
2019-05-28T17:34:30.997Z,12.60
2019-05-28T17:37:14.749Z,12.50
2019-05-28T17:39:56.420Z,12.40
2019-05-28T17:42:38.046Z,12.20
2019-05-28T17:45:19.966Z,12.10
2019-05-28T17:48:01.988Z,12.00
2019-05-28T17:50:44.317Z,12.00
2019-05-28T17:53:26.844Z,11.90
2019-05-28T17:56:08.274Z,11.80
2019-05-28T17:58:51.141Z,11.80
2019-05-28T18:01:32.335Z,11.70
2019-05-28T18:04:15.911Z,11.70
2019-05-28T18:06:57.885Z,11.70
2019-05-28T18:09:39.723Z,11.60
2019-05-28T18:12:21.361Z,11.50
2019-05-28T18:15:03.401Z,11.50
2019-05-28T18:17:45.359Z,11.60
2019-05-28T18:20:27.086Z,11.60
2019-05-28T18:23:09.161Z,11.50
2019-05-28T18:25:50.535Z,11.50
2019-05-28T18:28:32.099Z,11.40
2019-05-28T18:31:13.946Z,11.50
2019-05-28T18:33:55.741Z,11.40
2019-05-28T18:36:38.557Z,11.40
2019-05-28T18:42:20.070Z,11.30
2019-05-28T18:45:09.905Z,11.30
2019-05-28T18:47:41.220Z,11.30
2019-05-28T18:50:33.138Z,11.20
2019-05-28T18:53:22.495Z,11.20
2019-05-28T18:56:17.438Z,11.20
2019-05-28T18:59:04.107Z,11.20
2019-05-28T19:01:53.421Z,11.20
2019-05-28T19:04:24.270Z,11.30
2019-05-28T19:07:13.118Z,11.30
2019-05-28T19:10:02.048Z,11.20
2019-05-28T19:12:51.097Z,11.20
2019-05-28T19:15:40.126Z,11.20
2019-05-28T19:18:29.437Z,11.10
2019-05-28T19:21:18.357Z,11.20
2019-05-28T19:24:07.811Z,11.10
2019-05-28T19:29:50.392Z,11.10
2019-05-28T19:32:37.353Z,11.10
2019-05-28T19:35:28.433Z,11.10
2019-05-28T19:38:18.107Z,11.00
2019-05-28T19:41:07.454Z,11.00
2019-05-28T19:43:56.258Z,11.00
2019-05-28T19:46:45.173Z,11.00
2019-05-28T19:49:34.289Z,11.00
2019-05-28T19:52:23.034Z,11.00
2019-05-28T19:55:11.956Z,11.00
2019-05-28T19:58:00.993Z,11.00
2019-05-28T20:00:50.278Z,11.00
2019-05-28T20:03:39.081Z,10.90
2019-05-28T20:06:28.098Z,10.90
2019-05-28T20:09:17.232Z,10.90
2019-05-28T20:11:47.198Z,10.80
2019-05-28T20:14:36.168Z,10.70
2019-05-28T20:17:25.547Z,10.70
2019-05-28T20:20:14.889Z,10.70
2019-05-28T20:23:04.258Z,10.70
2019-05-28T20:25:54.475Z,10.70
2019-05-28T20:28:44.259Z,10.60
2019-05-28T20:31:26.027Z,10.70
2019-05-28T20:34:07.825Z,10.70
2019-05-28T20:36:49.943Z,10.70
2019-05-28T20:39:31.314Z,10.60
2019-05-28T20:42:02.012Z,10.60
2019-05-28T20:48:00.399Z,10.60
2019-05-28T20:50:50.276Z,10.60
2019-05-28T20:53:39.302Z,10.60
2019-05-28T20:56:28.100Z,10.70
2019-05-28T20:59:16.982Z,10.60
2019-05-28T21:02:05.812Z,10.60
2019-05-28T21:04:54.613Z,10.50
2019-05-28T21:07:24.494Z,10.60
2019-05-28T21:10:13.338Z,10.50
2019-05-28T21:13:02.574Z,10.40
2019-05-28T21:15:52.634Z,10.30
2019-05-28T21:18:42.451Z,10.20
2019-05-28T21:21:31.822Z,10.00
2019-05-28T21:24:21.446Z,10.00
2019-05-28T21:27:12.286Z,9.90
2019-05-28T21:30:01.161Z,9.80
2019-05-28T21:32:42.181Z,9.80
2019-05-28T21:35:24.348Z,9.70
2019-05-28T21:38:05.811Z,9.70
2019-05-28T21:40:47.646Z,9.70
2019-05-28T21:43:28.950Z,9.60
2019-05-28T21:46:10.690Z,9.70
2019-05-28T21:48:52.393Z,9.70
2019-05-28T21:51:33.825Z,9.70
2019-05-28T21:54:15.358Z,9.70
2019-05-28T21:56:57.327Z,9.70
2019-05-28T21:59:38.381Z,9.70
2019-05-28T22:02:19.899Z,9.70
2019-05-28T22:04:49.957Z,9.70
2019-05-28T22:07:39.038Z,9.80
2019-05-28T22:10:27.760Z,9.70
2019-05-28T22:13:22.112Z,9.70
2019-05-28T22:15:48.601Z,9.70
2019-05-28T22:18:37.946Z,9.70
2019-05-28T22:21:26.980Z,9.70
2019-05-28T22:24:15.757Z,9.70
2019-05-28T22:27:04.642Z,9.70
2019-05-28T22:29:53.592Z,9.80
2019-05-28T22:32:35.115Z,9.70
2019-05-28T22:35:16.649Z,9.70
2019-05-28T22:37:59.122Z,9.60
2019-05-28T22:40:40.263Z,9.70
2019-05-28T22:43:31.069Z,9.70
2019-05-28T22:46:05.311Z,9.70
2019-05-28T22:48:46.967Z,9.70
2019-05-28T22:51:28.536Z,9.70
2019-05-28T22:54:09.345Z,9.70
2019-05-28T22:56:50.769Z,9.70
2019-05-28T22:59:32.266Z,9.70
2019-05-28T23:02:13.367Z,9.70
2019-05-28T23:04:54.665Z,9.70
2019-05-28T23:07:35.999Z,9.70
2019-05-28T23:10:17.358Z,9.60
2019-05-28T23:12:59.174Z,9.60
2019-05-28T23:15:40.045Z,9.60
2019-05-28T23:18:21.876Z,9.60
2019-05-28T23:21:03.222Z,9.60
2019-05-28T23:23:33.122Z,9.60
2019-05-28T23:26:21.892Z,9.60
2019-05-28T23:29:11.912Z,9.50
2019-05-28T23:31:53.757Z,9.50
2019-05-28T23:34:35.257Z,9.50
2019-05-28T23:37:16.690Z,9.50
2019-05-28T23:39:57.959Z,9.50
2019-05-28T23:42:27.741Z,9.50
2019-05-28T23:45:16.708Z,9.40
2019-05-28T23:48:10.842Z,9.40
2019-05-28T23:50:55.871Z,9.40
2019-05-28T23:53:44.583Z,9.40
2019-05-28T23:56:33.770Z,9.40
2019-05-28T23:59:22.503Z,9.40
